createdAt,value
2022-08-10T00:01:51.865Z,24.44
2022-08-10T00:04:21.788Z,24.42
2022-08-10T00:06:51.528Z,24.40
2022-08-10T00:09:18.844Z,24.38
2022-08-10T00:11:45.800Z,24.36
2022-08-10T00:14:13.734Z,24.31
2022-08-10T00:16:40.759Z,24.31
2022-08-10T00:19:07.988Z,24.30
2022-08-10T00:21:39.213Z,24.22
2022-08-10T00:24:06.826Z,24.16
2022-08-10T00:27:50.067Z,24.13
2022-08-10T00:29:22.033Z,24.09
2022-08-10T00:31:58.168Z,24.09
2022-08-10T00:34:33.722Z,24.05
2022-08-10T00:37:01.882Z,24.01
2022-08-10T00:39:29.817Z,24.00
2022-08-10T00:42:10.105Z,23.95
2022-08-10T00:44:39.597Z,23.95
2022-08-10T00:47:36.219Z,23.94
2022-08-10T00:49:55.764Z,23.85
2022-08-10T00:52:25.306Z,23.84
2022-08-10T00:54:53.263Z,23.76
2022-08-10T00:57:21.856Z,23.74
2022-08-10T00:59:59.298Z,23.66
2022-08-10T01:02:32.989Z,23.65
2022-08-10T01:05:05.079Z,23.66
2022-08-10T01:08:11.159Z,23.69
2022-08-10T01:12:38.419Z,23.66
2022-08-10T01:14:08.342Z,23.66
2022-08-10T01:17:02.719Z,23.68
2022-08-10T01:20:03.463Z,23.72
2022-08-10T01:22:57.462Z,23.70
2022-08-10T01:26:31.001Z,23.69
2022-08-10T01:29:26.659Z,23.65
2022-08-10T01:32:02.665Z,23.61
2022-08-10T01:34:37.125Z,23.58
2022-08-10T01:37:12.375Z,23.53
2022-08-10T01:39:44.035Z,23.50
2022-08-10T01:42:15.145Z,23.48
2022-08-10T01:45:12.987Z,23.48
2022-08-10T01:48:05.411Z,23.44
2022-08-10T01:50:53.390Z,23.46
2022-08-10T01:53:53.452Z,23.44
2022-08-10T01:56:24.621Z,23.38
2022-08-10T01:58:57.656Z,23.35
2022-08-10T02:01:28.510Z,23.33
2022-08-10T02:04:04.865Z,23.22
2022-08-10T02:06:43.002Z,23.13
2022-08-10T02:09:15.621Z,23.10
2022-08-10T02:12:05.736Z,23.05
2022-08-10T02:14:35.575Z,22.96
2022-08-10T02:17:08.325Z,22.94
2022-08-10T02:19:41.507Z,22.86
2022-08-10T02:22:45.928Z,22.86
2022-08-10T02:25:00.566Z,22.83
2022-08-10T02:27:28.525Z,22.80
2022-08-10T02:29:58.193Z,22.77
2022-08-10T02:32:37.953Z,22.77
2022-08-10T02:35:17.797Z,22.77
2022-08-10T02:37:53.283Z,22.77
2022-08-10T02:45:02.153Z,22.74
2022-08-10T02:45:26.708Z,22.74
2022-08-10T02:46:28.879Z,22.71
2022-08-10T02:49:03.042Z,22.68
2022-08-10T02:52:06.855Z,22.65
2022-08-10T02:54:32.695Z,22.62
2022-08-10T02:57:10.061Z,22.53
2022-08-10T02:59:46.451Z,22.48
2022-08-10T03:02:36.841Z,22.37
2022-08-10T03:05:14.337Z,22.23
2022-08-10T03:08:06.106Z,21.98
2022-08-10T03:10:41.814Z,21.95
2022-08-10T03:13:12.478Z,21.97
2022-08-10T03:15:40.906Z,21.98
2022-08-10T03:18:09.545Z,22.02
2022-08-10T03:20:42.973Z,22.06
2022-08-10T03:23:17.687Z,22.09
2022-08-10T03:25:53.297Z,22.10
2022-08-10T03:28:27.196Z,22.11
2022-08-10T03:30:56.630Z,22.01
2022-08-10T03:33:27.399Z,21.97
2022-08-10T03:36:40.286Z,21.98
2022-08-10T03:38:46.402Z,21.92
2022-08-10T03:41:16.260Z,21.92
2022-08-10T03:43:48.367Z,21.93
2022-08-10T03:46:19.536Z,21.92
2022-08-10T03:48:51.750Z,21.92
2022-08-10T03:51:20.191Z,21.89
2022-08-10T03:54:06.042Z,21.91
2022-08-10T03:56:39.616Z,21.97
2022-08-10T03:59:13.111Z,21.96
2022-08-10T04:02:46.227Z,21.96
2022-08-10T04:04:31.833Z,21.95
2022-08-10T04:06:59.851Z,22.01
2022-08-10T04:09:42.879Z,22.11
2022-08-10T04:12:21.136Z,22.13
2022-08-10T04:14:52.031Z,22.18
2022-08-10T04:18:01.169Z,22.22
2022-08-10T04:20:38.199Z,22.15
2022-08-10T04:23:09.815Z,22.19
2022-08-10T04:25:40.026Z,22.22
2022-08-10T04:28:10.871Z,22.27
2022-08-10T04:30:40.683Z,22.30
2022-08-10T04:33:09.577Z,22.40
2022-08-10T04:35:38.512Z,22.50
2022-08-10T04:38:07.572Z,22.62
2022-08-10T04:40:36.701Z,22.73
2022-08-10T04:45:50.525Z,22.77
2022-08-10T04:48:42.203Z,22.88
2022-08-10T04:51:15.966Z,23.03
2022-08-10T04:54:06.168Z,23.08
2022-08-10T04:56:39.329Z,23.18
2022-08-10T04:59:08.303Z,23.23
2022-08-10T05:02:12.284Z,23.35
2022-08-10T05:04:34.517Z,23.53
2022-08-10T05:07:15.854Z,23.67
2022-08-10T05:10:01.227Z,23.74
2022-08-10T05:12:30.759Z,23.77
2022-08-10T05:14:58.121Z,23.92
2022-08-10T05:17:25.511Z,24.05
2022-08-10T05:20:04.322Z,24.15
2022-08-10T05:22:36.233Z,24.24
2022-08-10T05:25:04.975Z,24.35
2022-08-10T05:27:32.427Z,24.44
2022-08-10T05:30:02.172Z,24.58
2022-08-10T05:32:57.472Z,24.68
2022-08-10T05:35:22.456Z,24.81
2022-08-10T05:38:11.693Z,24.86
2022-08-10T05:40:42.618Z,24.95
2022-08-10T05:43:17.230Z,25.04
2022-08-10T05:46:18.718Z,25.15
2022-08-10T05:48:54.900Z,25.26
2022-08-10T05:51:20.802Z,25.39
2022-08-10T05:54:04.300Z,25.43
2022-08-10T05:56:56.380Z,25.52
2022-08-10T06:00:34.922Z,25.63
2022-08-10T06:02:35.049Z,25.75
2022-08-10T06:05:07.714Z,25.84
2022-08-10T06:07:40.636Z,25.86
2022-08-10T06:10:12.931Z,25.77
2022-08-10T06:12:55.398Z,25.86
2022-08-10T06:15:51.600Z,25.98
2022-08-10T06:18:16.074Z,25.97
2022-08-10T06:20:43.938Z,26.02
2022-08-10T06:23:12.182Z,26.12
2022-08-10T06:26:11.503Z,26.08
2022-08-10T06:28:31.217Z,26.14
2022-08-10T06:31:01.113Z,26.23
2022-08-10T06:33:31.789Z,26.27
2022-08-10T06:36:01.304Z,26.31
2022-08-10T06:38:32.673Z,26.48
2022-08-10T06:41:05.095Z,26.62
2022-08-10T06:43:34.482Z,26.66
2022-08-10T06:46:08.495Z,26.65
2022-08-10T06:48:44.975Z,26.70
2022-08-10T06:51:20.794Z,26.83
2022-08-10T06:53:53.062Z,26.96
2022-08-10T06:56:38.046Z,26.93
2022-08-10T06:59:21.177Z,27.05
2022-08-10T07:01:54.837Z,27.20
2022-08-10T07:04:32.501Z,27.26
2022-08-10T07:07:04.391Z,27.29
2022-08-10T07:09:36.552Z,27.20
2022-08-10T07:12:08.224Z,27.29
2022-08-10T07:14:42.647Z,27.32
2022-08-10T07:17:19.319Z,27.44
2022-08-10T07:19:49.940Z,27.46
2022-08-10T07:23:01.599Z,27.56
2022-08-10T07:25:11.131Z,27.70
2022-08-10T07:27:59.160Z,27.77
2022-08-10T07:30:31.713Z,27.73
2022-08-10T07:33:01.942Z,27.85
2022-08-10T07:35:42.762Z,27.98
2022-08-10T07:38:18.303Z,27.95
2022-08-10T07:40:47.651Z,27.87
2022-08-10T07:43:17.394Z,27.80
2022-08-10T07:45:48.288Z,27.78
2022-08-10T07:48:20.001Z,27.95
2022-08-10T07:50:48.183Z,28.10
2022-08-10T07:53:34.962Z,28.13
2022-08-10T07:56:20.930Z,28.05
2022-08-10T07:58:57.870Z,28.11
2022-08-10T08:01:32.918Z,28.20
2022-08-10T08:04:05.843Z,28.17
2022-08-10T08:06:42.384Z,28.19
2022-08-10T08:09:11.228Z,28.28
2022-08-10T08:11:45.379Z,28.38
2022-08-10T08:14:14.997Z,28.52
2022-08-10T08:16:49.573Z,28.31
2022-08-10T08:19:28.585Z,28.41
2022-08-10T08:24:06.197Z,28.49
2022-08-10T08:24:58.902Z,28.54
2022-08-10T08:27:28.837Z,28.73
2022-08-10T08:29:57.599Z,28.95
2022-08-10T08:32:27.996Z,29.09
2022-08-10T08:35:03.188Z,29.16
2022-08-10T08:38:31.338Z,29.17
2022-08-10T08:40:37.353Z,29.19
2022-08-10T08:43:31.327Z,28.90
2022-08-10T08:46:02.019Z,29.13
2022-08-10T08:50:05.160Z,29.30
2022-08-10T08:52:18.181Z,29.31
2022-08-10T08:55:03.504Z,29.28
2022-08-10T08:58:10.162Z,29.37
2022-08-10T09:01:03.682Z,29.52
2022-08-10T09:04:26.853Z,29.47
2022-08-10T09:08:00.768Z,29.54
2022-08-10T09:10:44.800Z,29.47
2022-08-10T09:13:29.485Z,29.48
2022-08-10T09:16:24.101Z,29.52
2022-08-10T09:19:19.766Z,29.58
2022-08-10T09:22:17.331Z,29.76
2022-08-10T09:25:10.699Z,29.82
2022-08-10T09:27:49.697Z,29.90
2022-08-10T09:30:31.674Z,30.01
2022-08-10T09:36:26.172Z,30.13
2022-08-10T09:36:31.942Z,30.03
2022-08-10T09:40:56.530Z,30.17
2022-08-10T09:42:23.049Z,30.20
2022-08-10T09:44:57.522Z,30.22
2022-08-10T09:47:58.688Z,30.13
2022-08-10T09:51:09.342Z,30.14
2022-08-10T09:53:45.068Z,30.27
2022-08-10T09:56:48.210Z,30.29
2022-08-10T10:00:01.728Z,30.27
2022-08-10T10:02:40.766Z,30.36
2022-08-10T10:05:14.521Z,30.34
2022-08-10T10:07:51.598Z,30.35
2022-08-10T10:10:33.447Z,30.48
2022-08-10T10:13:16.001Z,30.23
2022-08-10T10:15:45.910Z,30.19
2022-08-10T10:18:51.847Z,30.08
2022-08-10T10:21:55.712Z,30.26
2022-08-10T10:24:43.074Z,30.24
2022-08-10T10:27:30.674Z,30.28
2022-08-10T10:30:25.346Z,30.33
2022-08-10T10:33:24.751Z,30.34
2022-08-10T10:35:55.971Z,30.15
2022-08-10T10:38:28.011Z,30.17
2022-08-10T10:41:22.553Z,30.21
2022-08-10T10:44:22.052Z,30.31
2022-08-10T10:47:19.746Z,30.32
2022-08-10T10:50:09.282Z,30.53
2022-08-10T10:53:02.401Z,30.75
2022-08-10T10:56:15.474Z,30.71
2022-08-10T10:58:53.676Z,30.74
2022-08-10T11:01:45.106Z,30.97
2022-08-10T11:04:35.393Z,31.08
2022-08-10T11:07:18.167Z,31.20
2022-08-10T11:10:33.240Z,31.34
2022-08-10T11:14:27.100Z,31.51
2022-08-10T11:17:12.012Z,31.87
2022-08-10T11:20:04.464Z,32.13
2022-08-10T11:22:38.648Z,32.49
2022-08-10T11:25:11.978Z,32.34
2022-08-10T11:27:57.910Z,32.40
2022-08-10T11:30:36.826Z,32.52
2022-08-10T11:33:14.691Z,32.32
2022-08-10T11:36:05.552Z,32.28
2022-08-10T11:39:18.931Z,32.25
2022-08-10T11:42:40.044Z,32.29
2022-08-10T11:45:17.124Z,32.37
2022-08-10T11:48:04.991Z,32.62
2022-08-10T11:50:40.251Z,32.97
2022-08-10T11:53:16.330Z,33.06
2022-08-10T11:55:49.644Z,33.26
2022-08-10T11:58:37.792Z,33.39
2022-08-10T12:01:08.426Z,33.37
2022-08-10T12:03:38.687Z,33.75
2022-08-10T12:06:10.103Z,33.80
2022-08-10T12:10:11.624Z,34.20
2022-08-10T12:11:29.966Z,34.08
2022-08-10T12:14:20.372Z,33.84
2022-08-10T12:16:53.370Z,33.28
2022-08-10T12:19:28.131Z,33.08
2022-08-10T12:22:07.696Z,32.56
2022-08-10T12:24:45.539Z,32.28
2022-08-10T12:27:44.848Z,32.13
2022-08-10T12:30:16.706Z,31.96
2022-08-10T12:32:54.893Z,31.95
2022-08-10T12:35:56.224Z,31.97
2022-08-10T12:39:00.215Z,31.82
2022-08-10T12:41:44.491Z,32.44
2022-08-10T12:44:18.376Z,33.41
2022-08-10T12:47:10.367Z,33.86
2022-08-10T12:50:31.067Z,34.27
2022-08-10T12:53:06.993Z,34.44
2022-08-10T12:55:38.216Z,34.17
2022-08-10T12:58:57.324Z,33.93
2022-08-10T13:01:16.485Z,33.70
2022-08-10T13:04:21.396Z,33.62
2022-08-10T13:06:47.016Z,33.60
2022-08-10T13:09:22.797Z,33.63
2022-08-10T13:12:44.563Z,33.86
2022-08-10T13:14:59.462Z,34.39
2022-08-10T13:17:39.656Z,35.16
2022-08-10T13:20:21.061Z,35.87
2022-08-10T13:22:52.187Z,36.43
2022-08-10T13:25:30.252Z,37.06
2022-08-10T13:28:36.893Z,37.71
2022-08-10T13:30:54.294Z,38.46
2022-08-10T13:34:35.854Z,38.56
2022-08-10T13:36:21.051Z,38.18
2022-08-10T13:38:50.019Z,37.73
2022-08-10T13:41:19.628Z,37.18
2022-08-10T13:43:57.517Z,36.75
2022-08-10T13:46:25.120Z,36.53
2022-08-10T13:48:53.629Z,36.37
2022-08-10T13:51:54.227Z,36.26
2022-08-10T13:54:16.781Z,36.34
2022-08-10T13:56:47.657Z,36.35
2022-08-10T13:59:16.312Z,36.30
2022-08-10T14:01:50.661Z,36.27
2022-08-10T14:04:19.147Z,36.24
2022-08-10T14:06:54.760Z,35.91
2022-08-10T14:09:30.043Z,35.22
2022-08-10T14:11:59.019Z,34.33
2022-08-10T14:14:29.537Z,33.63
2022-08-10T14:16:59.111Z,33.11
2022-08-10T14:19:36.586Z,32.77
2022-08-10T14:22:07.043Z,32.40
2022-08-10T14:24:34.396Z,32.31
2022-08-10T14:27:11.161Z,32.36
2022-08-10T14:29:55.123Z,32.06
2022-08-10T14:32:28.376Z,31.93
2022-08-10T14:36:18.407Z,31.81
2022-08-10T14:38:00.656Z,31.49
2022-08-10T14:40:36.081Z,31.47
2022-08-10T14:43:11.677Z,31.52
2022-08-10T14:45:42.698Z,31.50
2022-08-10T14:48:16.277Z,31.75
2022-08-10T14:50:55.326Z,32.15
2022-08-10T14:53:27.575Z,32.62
2022-08-10T14:56:01.096Z,32.15
2022-08-10T14:58:35.138Z,32.04
2022-08-10T15:01:06.022Z,32.05
2022-08-10T15:03:59.565Z,31.58
2022-08-10T15:06:33.912Z,31.37
2022-08-10T15:09:12.653Z,31.21
2022-08-10T15:12:13.390Z,30.85
2022-08-10T15:14:44.791Z,30.45
2022-08-10T15:17:23.655Z,30.31
2022-08-10T15:20:02.231Z,30.01
2022-08-10T15:22:38.410Z,30.09
2022-08-10T15:25:19.435Z,29.74
2022-08-10T15:27:57.514Z,29.60
2022-08-10T15:30:32.906Z,29.63
2022-08-10T15:34:01.970Z,29.78
2022-08-10T15:36:35.149Z,29.88
2022-08-10T15:40:08.814Z,30.14
2022-08-10T15:42:08.132Z,30.26
2022-08-10T15:44:43.303Z,30.44
2022-08-10T15:47:27.529Z,31.27
2022-08-10T15:50:50.614Z,31.21
2022-08-10T15:53:32.877Z,30.98
2022-08-10T15:56:28.402Z,30.84
2022-08-10T15:59:08.342Z,30.99
2022-08-10T16:02:13.563Z,30.98
2022-08-10T16:04:35.580Z,30.52
2022-08-10T16:07:12.660Z,30.45
2022-08-10T16:10:24.840Z,30.30
2022-08-10T16:12:59.732Z,30.22
2022-08-10T16:15:29.814Z,30.08
2022-08-10T16:18:10.449Z,30.09
2022-08-10T16:20:54.742Z,30.07
2022-08-10T16:24:14.256Z,29.97
2022-08-10T16:26:50.366Z,29.96
2022-08-10T16:29:22.686Z,30.04
2022-08-10T16:31:57.435Z,30.02
2022-08-10T16:34:27.882Z,29.97
2022-08-10T16:37:14.344Z,29.86
2022-08-10T16:39:59.755Z,29.65
2022-08-10T16:42:34.242Z,29.59
2022-08-10T16:45:15.544Z,29.41
2022-08-10T16:47:49.511Z,29.24
2022-08-10T16:50:25.076Z,29.18
2022-08-10T16:52:54.325Z,29.08
2022-08-10T16:55:48.907Z,28.97
2022-08-10T16:58:15.079Z,28.90
2022-08-10T17:00:45.164Z,28.84
2022-08-10T17:03:22.548Z,28.79
2022-08-10T17:06:10.746Z,28.51
2022-08-10T17:08:49.066Z,28.43
2022-08-10T17:11:18.934Z,28.29
2022-08-10T17:13:46.684Z,28.23
2022-08-10T17:16:17.179Z,28.19
2022-08-10T17:18:48.516Z,28.10
2022-08-10T17:21:22.206Z,27.94
2022-08-10T17:23:53.550Z,27.83
2022-08-10T17:26:35.737Z,27.67
2022-08-10T17:29:58.795Z,27.56
2022-08-10T17:32:20.792Z,27.39
2022-08-10T17:34:52.682Z,27.28
2022-08-10T17:37:22.962Z,27.23
2022-08-10T17:40:15.754Z,27.19
2022-08-10T17:42:47.429Z,27.02
2022-08-10T17:45:48.399Z,26.93
2022-08-10T17:48:16.142Z,26.85
2022-08-10T17:50:48.682Z,26.77
2022-08-10T17:53:20.550Z,26.61
2022-08-10T17:55:53.839Z,26.50
2022-08-10T17:58:22.152Z,26.33
2022-08-10T18:00:52.771Z,26.21
2022-08-10T18:03:29.847Z,26.21
2022-08-10T18:06:01.547Z,26.06
2022-08-10T18:08:32.620Z,25.86
2022-08-10T18:11:01.751Z,25.71
2022-08-10T18:13:55.461Z,25.76
2022-08-10T18:16:26.302Z,25.71
2022-08-10T18:19:00.341Z,25.61
2022-08-10T18:21:30.763Z,25.53
2022-08-10T18:24:07.168Z,25.55
2022-08-10T18:26:37.332Z,25.46
2022-08-10T18:29:29.725Z,25.49
2022-08-10T18:32:00.136Z,25.44
2022-08-10T18:34:30.668Z,25.44
2022-08-10T18:36:58.090Z,25.34
2022-08-10T18:39:29.587Z,25.34
2022-08-10T18:42:04.964Z,25.33
2022-08-10T18:44:52.319Z,25.30
2022-08-10T18:47:41.322Z,25.24
2022-08-10T18:50:33.596Z,25.14
2022-08-10T18:53:09.353Z,25.07
2022-08-10T18:55:57.863Z,25.04
2022-08-10T18:58:40.845Z,25.04
2022-08-10T19:01:39.573Z,25.02
2022-08-10T19:04:25.459Z,24.98
2022-08-10T19:07:08.341Z,25.00
2022-08-10T19:09:48.509Z,24.83
2022-08-10T19:12:31.743Z,24.82
2022-08-10T19:15:05.423Z,24.85
2022-08-10T19:18:06.230Z,24.85
2022-08-10T19:20:49.445Z,24.86
2022-08-10T19:23:26.191Z,24.86
2022-08-10T19:26:41.038Z,24.87
2022-08-10T19:30:08.829Z,24.80
2022-08-10T19:32:31.898Z,24.72
2022-08-10T19:35:25.717Z,24.72
2022-08-10T19:38:17.059Z,24.62
2022-08-10T19:41:09.596Z,24.58
2022-08-10T19:44:00.424Z,24.60
2022-08-10T19:46:46.662Z,24.57
2022-08-10T19:49:39.702Z,24.55
2022-08-10T19:52:34.958Z,24.54
2022-08-10T19:55:25.300Z,24.52
2022-08-10T19:58:01.444Z,24.48
2022-08-10T20:00:41.180Z,24.48
2022-08-10T20:03:23.572Z,24.51
2022-08-10T20:06:13.027Z,24.52
2022-08-10T20:08:53.866Z,24.44
2022-08-10T20:11:47.372Z,24.42
2022-08-10T20:14:30.895Z,24.38
2022-08-10T20:17:45.173Z,24.33
2022-08-10T20:20:45.657Z,24.23
2022-08-10T20:23:21.459Z,24.15
2022-08-10T20:25:56.544Z,24.07
2022-08-10T20:28:43.202Z,24.04
2022-08-10T20:31:17.682Z,24.01
2022-08-10T20:34:01.649Z,24.02
2022-08-10T20:36:38.575Z,23.99
2022-08-10T20:39:09.242Z,23.95
2022-08-10T20:41:51.939Z,23.95
2022-08-10T20:44:43.851Z,23.90
2022-08-10T20:47:19.952Z,23.84
2022-08-10T20:49:53.212Z,23.77
2022-08-10T20:52:23.443Z,23.75
2022-08-10T20:54:56.994Z,23.77
2022-08-10T20:57:59.656Z,23.70
2022-08-10T21:00:44.831Z,23.67
2022-08-10T21:03:58.876Z,23.61
2022-08-10T21:06:43.388Z,23.57
2022-08-10T21:09:14.299Z,23.53
2022-08-10T21:12:07.471Z,23.55
2022-08-10T21:15:00.301Z,23.53
2022-08-10T21:17:47.629Z,23.53
2022-08-10T21:20:28.628Z,23.42
2022-08-10T21:23:05.368Z,23.53
2022-08-10T21:26:08.069Z,23.60
2022-08-10T21:28:44.829Z,23.59
2022-08-10T21:31:42.171Z,23.56
2022-08-10T21:34:55.205Z,23.54
2022-08-10T21:37:56.873Z,23.52
2022-08-10T21:40:41.321Z,23.53
2022-08-10T21:43:45.884Z,23.57
2022-08-10T21:46:55.208Z,23.57
2022-08-10T21:49:47.347Z,23.56
2022-08-10T21:52:53.709Z,23.59
2022-08-10T21:56:01.446Z,23.51
2022-08-10T21:59:00.867Z,23.45
2022-08-10T22:02:08.155Z,23.47
2022-08-10T22:04:54.660Z,23.44
2022-08-10T22:07:41.862Z,23.45
2022-08-10T22:10:28.351Z,23.32
2022-08-10T22:13:20.844Z,23.33
2022-08-10T22:16:12.366Z,23.29
2022-08-10T22:19:03.730Z,23.22
2022-08-10T22:22:27.717Z,23.23
2022-08-10T22:25:22.358Z,23.24
2022-08-10T22:28:12.500Z,23.16
2022-08-10T22:31:36.729Z,23.13
2022-08-10T22:35:10.583Z,23.11
2022-08-10T22:38:24.850Z,23.12
2022-08-10T22:41:13.390Z,22.99
2022-08-10T22:44:00.032Z,22.95
2022-08-10T22:46:51.756Z,22.96
2022-08-10T22:49:23.934Z,22.90
2022-08-10T22:51:56.670Z,22.87
2022-08-10T22:55:16.044Z,22.83
2022-08-10T22:58:08.125Z,22.74
2022-08-10T23:00:37.634Z,22.76
2022-08-10T23:03:16.831Z,22.76
2022-08-10T23:05:56.079Z,22.71
2022-08-10T23:08:30.627Z,22.71
2022-08-10T23:11:06.624Z,22.70
2022-08-10T23:16:37.683Z,22.72
2022-08-10T23:19:13.182Z,22.70
2022-08-10T23:22:03.391Z,22.66
2022-08-10T23:24:37.717Z,22.62
2022-08-10T23:27:13.222Z,22.65
2022-08-10T23:30:04.062Z,22.68
2022-08-10T23:32:59.769Z,22.73
2022-08-10T23:36:31.445Z,22.71
2022-08-10T23:38:22.918Z,22.76
2022-08-10T23:40:54.444Z,22.74
2022-08-10T23:43:46.671Z,22.74
2022-08-10T23:46:17.377Z,22.72
2022-08-10T23:48:47.331Z,22.71
2022-08-10T23:51:17.430Z,22.71
2022-08-10T23:53:47.863Z,22.69
2022-08-10T23:56:21.628Z,22.72
2022-08-10T23:58:55.067Z,22.71
